createdAt,value
2018-06-19T00:00:57.460Z,70.40
2018-06-19T00:02:03.694Z,70.72
2018-06-19T00:03:09.918Z,70.04
2018-06-19T00:04:16.174Z,70.33
2018-06-19T00:05:22.221Z,70.62
2018-06-19T00:06:29.321Z,70.92
2018-06-19T00:07:35.599Z,71.32
2018-06-19T00:08:41.829Z,71.04
2018-06-19T00:09:48.080Z,70.81
2018-06-19T00:10:54.334Z,70.55
2018-06-19T00:12:00.203Z,70.78
2018-06-19T00:13:06.204Z,70.85
2018-06-19T00:14:12.504Z,70.65
2018-06-19T00:15:18.763Z,70.66
2018-06-19T00:16:24.687Z,71.40
2018-06-19T00:17:30.660Z,71.10
2018-06-19T00:18:36.962Z,71.26
2018-06-19T00:19:42.849Z,71.03
2018-06-19T00:20:49.128Z,70.62
2018-06-19T00:21:55.884Z,70.48
2018-06-19T00:23:01.464Z,70.76
2018-06-19T00:24:07.390Z,70.71
2018-06-19T00:25:13.624Z,70.36
2018-06-19T00:26:19.138Z,70.26
2018-06-19T00:27:25.053Z,70.29
2018-06-19T00:28:31.309Z,70.23
2018-06-19T00:29:37.581Z,70.42
2018-06-19T00:30:43.817Z,70.85
2018-06-19T00:31:50.036Z,70.95
2018-06-19T00:32:56.262Z,70.71
2018-06-19T00:34:06.085Z,70.50
2018-06-19T00:35:12.311Z,70.72
2018-06-19T00:36:18.563Z,71.69
2018-06-19T00:37:24.779Z,71.56
2018-06-19T00:38:31.903Z,70.96
2018-06-19T00:39:38.152Z,70.56
2018-06-19T00:40:44.399Z,70.25
2018-06-19T00:41:50.669Z,70.42
2018-06-19T00:42:56.934Z,70.57
2018-06-19T00:44:03.510Z,70.74
2018-06-19T00:45:09.783Z,71.51
2018-06-19T00:46:15.649Z,71.39
2018-06-19T00:47:21.908Z,71.18
2018-06-19T00:48:28.141Z,70.72
2018-06-19T00:49:34.403Z,70.82
2018-06-19T00:50:40.633Z,70.76
2018-06-19T00:51:46.581Z,71.22
2018-06-19T00:52:52.826Z,71.25
2018-06-19T00:53:59.054Z,71.28
2018-06-19T00:55:04.948Z,71.44
2018-06-19T00:56:22.153Z,71.21
2018-06-19T00:57:28.138Z,71.61
2018-06-19T00:58:34.583Z,71.12
2018-06-19T00:59:40.854Z,71.81
2018-06-19T01:00:47.080Z,71.98
2018-06-19T01:01:53.369Z,71.57
2018-06-19T01:02:59.288Z,71.58
2018-06-19T01:04:05.490Z,71.98
2018-06-19T01:05:11.730Z,72.21
2018-06-19T01:06:18.856Z,72.76
2018-06-19T01:07:25.257Z,73.09
2018-06-19T01:08:31.207Z,73.19
2018-06-19T01:09:37.445Z,73.14
2018-06-19T01:10:43.677Z,73.64
2018-06-19T01:11:49.887Z,73.31
2018-06-19T01:12:56.097Z,72.68
2018-06-19T01:14:02.355Z,72.67
2018-06-19T01:15:08.614Z,72.71
2018-06-19T01:16:14.849Z,72.28
2018-06-19T01:17:21.117Z,72.10
2018-06-19T01:18:27.391Z,72.39
2018-06-19T01:19:34.570Z,72.52
2018-06-19T01:20:40.786Z,72.48
2018-06-19T01:21:47.003Z,72.73
2018-06-19T01:22:53.240Z,72.88
2018-06-19T01:23:59.507Z,72.79
2018-06-19T01:25:05.805Z,72.98
2018-06-19T01:26:12.009Z,73.50
2018-06-19T01:27:18.224Z,73.55
2018-06-19T01:28:24.085Z,74.14
2018-06-19T01:29:31.211Z,73.44
2018-06-19T01:30:38.228Z,73.77
2018-06-19T01:31:44.459Z,73.40
2018-06-19T01:32:50.705Z,74.03
2018-06-19T01:33:56.564Z,74.87
2018-06-19T01:35:03.029Z,74.46
2018-06-19T01:36:09.271Z,75.17
2018-06-19T01:37:15.509Z,73.93
2018-06-19T01:38:21.477Z,73.47
2018-06-19T01:39:27.416Z,72.61
2018-06-19T01:40:33.763Z,73.21
2018-06-19T01:41:40.039Z,73.94
2018-06-19T01:42:45.986Z,73.98
2018-06-19T01:43:52.197Z,74.01
2018-06-19T01:44:58.172Z,73.94
2018-06-19T01:46:04.414Z,73.39
2018-06-19T01:47:10.401Z,72.71
2018-06-19T01:48:16.636Z,72.79
2018-06-19T01:49:22.855Z,73.76
2018-06-19T01:50:29.186Z,74.26
2018-06-19T01:51:35.129Z,74.36
2018-06-19T01:52:41.383Z,74.89
2018-06-19T01:53:47.618Z,74.61
2018-06-19T01:54:53.858Z,74.30
2018-06-19T01:56:00.113Z,73.51
2018-06-19T01:57:06.328Z,73.58
2018-06-19T01:58:12.624Z,73.83
2018-06-19T01:59:18.868Z,73.87
2018-06-19T02:00:25.136Z,73.76
2018-06-19T02:01:31.348Z,74.33
2018-06-19T02:02:38.263Z,74.37
2018-06-19T02:03:44.231Z,74.78
2018-06-19T02:04:50.733Z,74.24
2018-06-19T02:05:57.891Z,74.46
2018-06-19T02:07:03.537Z,75.44
2018-06-19T02:08:09.749Z,75.85
2018-06-19T02:09:15.980Z,76.08
2018-06-19T02:10:22.238Z,75.52
2018-06-19T02:11:28.472Z,75.46
2018-06-19T02:12:34.764Z,75.37
2018-06-19T02:13:40.995Z,75.82
2018-06-19T02:14:47.235Z,76.21
2018-06-19T02:15:53.480Z,77.22
2018-06-19T02:16:59.716Z,77.02
2018-06-19T02:18:05.964Z,76.97
2018-06-19T02:19:12.691Z,76.57
2018-06-19T02:20:20.319Z,76.64
2018-06-19T02:21:26.250Z,77.22
2018-06-19T02:22:35.211Z,77.56
2018-06-19T02:23:41.450Z,77.65
2018-06-19T02:24:47.701Z,78.19
2018-06-19T02:25:53.972Z,78.20
2018-06-19T02:27:00.216Z,78.78
2018-06-19T02:28:06.443Z,79.07
2018-06-19T02:29:12.673Z,78.82
2018-06-19T02:30:18.957Z,79.65
2018-06-19T02:31:25.240Z,79.57
2018-06-19T02:32:31.468Z,79.80
2018-06-19T02:33:37.690Z,79.45
